Letzte erfasste Runde: Tobias Kuppe - 1:43.627 - Chevrolet Corvette C7R GT3 - Daytona International Speedway - Road Course - 15.08.2022 03:33:00
Platz Datum Fahrer Zeit Diff S1 S2 S3 Fahrzeug Session KG Reifen Runden
- - Theoretische Bestzeit 52.996 - 29.515 23.481 - - - - - -
1 28.12.2016 Patrick Kreutz 52.996 - 29.515 23.481 - Porsche 718 Cayman GT4 Clubsport MR Qualifying 0 327
2 28.12.2016 Jörg Spindler 53.233 0.237 29.630 23.603 - Porsche 718 Cayman GT4 Clubsport MR Qualifying 0 630
3 27.12.2016 René Beitz 53.287 0.291 29.725 23.562 - Porsche 718 Cayman GT4 Clubsport MR Practice 0 525
4 28.12.2016 Robert Hyna 53.427 0.431 29.802 23.625 - Porsche 718 Cayman GT4 Clubsport MR Qualifying 0 489
5 28.12.2016 Manuel Hoehn 53.442 0.446 29.789 23.653 - Porsche 718 Cayman GT4 Clubsport MR Qualifying 0 414
6 28.12.2016 Marius Möller 53.459 0.463 29.969 23.490 - Porsche 718 Cayman GT4 Clubsport MR Qualifying 0 603
7 27.12.2016 Sven Seefeld 53.488 0.492 29.809 23.679 - Porsche 718 Cayman GT4 Clubsport MR Practice 0 990
8 28.12.2016 Nuno Pinheiro 53.511 0.515 29.652 23.859 - Porsche 718 Cayman GT4 Clubsport MR Qualifying 0 351
9 28.12.2016 Roland Rauch 53.532 0.536 29.956 23.576 - Porsche 718 Cayman GT4 Clubsport MR Qualifying 0 444
10 28.12.2016 Tom Ritter 53.569 0.573 29.940 23.629 - Porsche 718 Cayman GT4 Clubsport MR Qualifying 0 700
11 28.12.2016 Marcel Jeleniowski 53.594 0.598 29.884 23.710 - Porsche 718 Cayman GT4 Clubsport MR Race 0 381
12 28.12.2016 Ingo Held 53.672 0.676 29.989 23.683 - Porsche 718 Cayman GT4 Clubsport MR Qualifying 0 392
13 28.12.2016 Torsten Kilp 53.690 0.694 29.813 23.877 - Porsche 718 Cayman GT4 Clubsport MR Qualifying 0 432
14 28.12.2016 Tobias Spalt 53.696 0.700 29.968 23.728 - Porsche 718 Cayman GT4 Clubsport MR Qualifying 0 454
15 28.12.2016 Marc Wieneke 53.697 0.701 29.905 23.792 - Porsche 718 Cayman GT4 Clubsport MR Qualifying 0 385
16 28.12.2016 Marc Faetkenheuer 53.697 0.701 29.995 23.702 - Porsche 718 Cayman GT4 Clubsport MR Race 0 411
17 28.12.2016 Daniel Meyke 53.737 0.741 29.986 23.751 - Porsche 718 Cayman GT4 Clubsport MR Race 0 615
18 28.12.2016 Alireza Naderi 53.757 0.761 30.037 23.720 - Porsche 718 Cayman GT4 Clubsport MR Race 0 330
19 28.12.2016 Stev Buchheim 53.856 0.860 29.947 23.909 - Porsche 718 Cayman GT4 Clubsport MR Race 0 277
20 28.12.2016 Sebastian Holler 53.924 0.928 30.083 23.841 - Porsche 718 Cayman GT4 Clubsport MR Qualifying 0 459
21 27.12.2016 Gero Mulkau 53.989 0.993 29.972 24.017 - Porsche 718 Cayman GT4 Clubsport MR Practice 0 524
22 28.12.2016 Patrick Trute 54.183 1.187 30.161 24.022 - Porsche 718 Cayman GT4 Clubsport MR Practice 0 273
23 27.12.2016 Michael Hoffmann 54.296 1.300 30.383 23.913 - Porsche 718 Cayman GT4 Clubsport MR Practice 0 24
24 27.12.2016 Thorben Kexel 54.509 1.513 30.489 24.020 - Porsche 718 Cayman GT4 Clubsport MR Practice 0 54
25 25.12.2016 Jan Lintz 54.586 1.590 30.417 24.169 - Porsche 718 Cayman GT4 Clubsport MR Practice 0 15
26 26.12.2016 Oliver Wessel 54.648 1.652 30.572 24.076 - Porsche 718 Cayman GT4 Clubsport MR Practice 0 258
27 28.12.2016 Max Ohliger 54.736 1.740 30.630 24.106 - Porsche 718 Cayman GT4 Clubsport MR Practice 0 204
28 28.12.2016 Maurice Hoogenhout 54.747 1.751 30.577 24.170 - Porsche 718 Cayman GT4 Clubsport MR Race 0 231
29 26.12.2016 Rick Born 55.309 2.313 30.775 24.534 - Porsche 718 Cayman GT4 Clubsport MR Practice 0 18
30 25.11.2016 Greenhelldriver 55.424 2.428 31.178 24.246 - Porsche 911 GT3 RS Practice 0 26
31 25.11.2016 Kai Ostwald 55.481 2.485 31.172 24.309 - Porsche 911 GT3 RS Race 0 24
32 25.11.2016 Jimmy Khan 55.516 2.520 31.117 24.399 - Porsche 911 GT3 RS Race 0 24
33 25.11.2016 Sebastian Schweiger 55.697 2.701 31.109 24.588 - Porsche 911 GT3 RS Race 0 23
34 25.11.2016 Mike Voigt-Bensch 55.825 2.829 31.471 24.354 - Porsche 911 GT3 RS Qualifying 0 28
35 25.11.2016 Maurice Brackhahn 55.889 2.893 31.630 24.259 - Porsche 911 GT3 RS Race 0 20
36 25.11.2016 Rocco Rost 55.976 2.980 31.505 24.471 - Porsche 911 GT3 RS Race 0 24
37 25.11.2016 Sandro87 55.998 3.002 31.445 24.553 - Porsche 911 GT3 RS Race 0 26
38 25.11.2016 Till Bernhardt 56.091 3.095 31.475 24.616 - Porsche 911 GT3 RS Race 0 22
39 25.11.2016 Marco Küttelwesch 56.094 3.098 31.514 24.580 - Porsche 911 GT3 RS Race 0 30
40 25.11.2016 Axel Dorner 56.377 3.381 31.668 24.709 - Porsche 911 GT3 RS Race 0 24
41 25.11.2016 Jim Clark 56.399 3.403 31.649 24.750 - Porsche 911 GT3 RS Race 0 25
42 25.11.2016 Sven Scheffler 56.882 3.886 32.002 24.880 - Porsche 911 GT3 RS Race 0 13
43 25.11.2016 Wolfgang Schmitt 56.972 3.976 31.624 25.348 - Porsche 911 GT3 RS Race 0 27
44 25.11.2016 Jonas Hillert 57.135 4.139 32.326 24.809 - Porsche 911 GT3 RS Race 0 29
45 15.10.2018 Markus Hahn 1:02.176 9.180 34.690 27.486 - Alfa Romeo Giulia QV Practice 0 HR 2

SERVER

1 / 61
virtualracing.org #1 GTM
Training 1Lime Rock Park -- Uphill Chicane
0 / 81
virtualracing.org #3 FS
Training 1Lime Rock Park -- Uphill Chicane
0 / 81
virtualracing.org #4 LSM
Training 1Spa-Francorchamps Endurance
0 / 34
virtualracing.org #5 VRF1S
Training 1Zandvoort 2021
0 / 34
virtualracing.org #6 VRCS
Training 1Donington Park National Circuit
0 / 81
virtualracing.org #P1 BTCC
Training 1Oulton Park International NC
0 / 81
virtualracing.org #P2 CA
Training 1Oulton Park Island
0 / 34
virtualracing.org #P3 Mini
Training 1Silverstone International
0 / 33
virtualracing.org #P4 IR18
Training 1Laguna Seca
0/31
virtualracing.org#4 GTC Training Standard
TrainingDaytona International Speedway - Road Course
0/31
virtualracing.org#5 GTC Training A
TrainingDaytona International Speedway - Road Course
0/32
virtualracing.org#33 GTC Starttest
TrainingDaytona International Speedway - Road Course